Time;durP1;ratioP1;P1;durP2;ratioP2;P2;SDS_P1;SDS_P2;PMS_P1;PMS_P2;Temp;Humidity;BMP_temperature;BMP_pressure;BME280_temperature;BME280_humidity;BME280_pressure;Samples;Min_cycle;Max_cycle;Signal;HPM_P1;HPM_P2
2023/12/03 00:01:47;;;;;;;24.87;17.50;;;;;;;;;;5285553;28;20021;-76
2023/12/03 00:04:19;;;;;;;22.80;16.53;;;;;;;;;;5287446;28;20521;-76
2023/12/03 00:06:50;;;;;;;21.80;15.70;;;;;;;;;;5284550;28;20034;-76
2023/12/03 00:09:21;;;;;;;22.87;15.90;;;;;;;;;;5285559;28;20029;-76
2023/12/03 00:11:52;;;;;;;22.80;16.07;;;;;;;;;;5284813;28;20009;-76
2023/12/03 00:14:24;;;;;;;24.00;16.27;;;;;;;;;;5287001;28;20033;-77
2023/12/03 00:16:55;;;;;;;23.13;16.30;;;;;;;;;;5288293;28;20348;-76
2023/12/03 00:19:26;;;;;;;23.36;15.40;;;;;;;;;;5285687;28;20024;-76
2023/12/03 00:21:57;;;;;;;22.87;15.50;;;;;;;;;;5281964;28;20095;-76
2023/12/03 00:24:30;;;;;;;24.67;16.57;;;;;;;;;;5282382;28;20032;-76
2023/12/03 00:27:01;;;;;;;23.07;15.67;;;;;;;;;;5282641;28;20039;-76
2023/12/03 00:29:32;;;;;;;23.83;16.00;;;;;;;;;;5281490;28;20143;-76
2023/12/03 00:32:04;;;;;;;22.53;15.70;;;;;;;;;;5282309;28;20046;-76
2023/12/03 00:34:35;;;;;;;21.23;14.77;;;;;;;;;;5281511;28;20535;-76
2023/12/03 00:37:06;;;;;;;20.80;15.50;;;;;;;;;;5282298;28;20025;-76
2023/12/03 00:39:37;;;;;;;23.17;15.63;;;;;;;;;;5282281;28;20331;-76
2023/12/03 00:42:08;;;;;;;20.67;15.73;;;;;;;;;;5281228;28;20089;-76
2023/12/03 00:44:41;;;;;;;21.57;15.33;;;;;;;;;;5282263;28;20217;-76
2023/12/03 00:47:13;;;;;;;20.23;14.00;;;;;;;;;;5281384;28;20099;-76
2023/12/03 00:49:44;;;;;;;22.03;15.93;;;;;;;;;;5281227;28;20608;-76
2023/12/03 00:52:15;;;;;;;20.80;14.90;;;;;;;;;;5282029;28;20099;-76
2023/12/03 00:54:46;;;;;;;22.77;15.93;;;;;;;;;;5281950;28;20048;-76
2023/12/03 00:57:18;;;;;;;19.17;14.00;;;;;;;;;;5281315;28;20024;-76
2023/12/03 00:59:49;;;;;;;20.80;15.30;;;;;;;;;;5281721;28;20020;-76
2023/12/03 01:02:20;;;;;;;22.17;16.20;;;;;;;;;;5281798;28;20016;-76
2023/12/03 01:04:51;;;;;;;22.53;16.10;;;;;;;;;;5281353;28;20157;-76
2023/12/03 01:07:23;;;;;;;20.93;15.70;;;;;;;;;;5281640;28;20020;-76
2023/12/03 01:09:54;;;;;;;21.67;15.73;;;;;;;;;;5281659;28;20105;-76
2023/12/03 01:12:25;;;;;;;25.32;17.50;;;;;;;;;;5281902;28;20031;-76
2023/12/03 01:14:56;;;;;;;23.50;16.60;;;;;;;;;;5282046;28;20078;-75
2023/12/03 01:17:27;;;;;;;22.87;15.57;;;;;;;;;;5280702;28;20024;-76
2023/12/03 01:19:58;;;;;;;22.03;15.40;;;;;;;;;;5281540;28;20043;-76
2023/12/03 01:22:30;;;;;;;23.00;16.40;;;;;;;;;;5281726;28;20029;-78
2023/12/03 01:25:01;;;;;;;26.03;17.80;;;;;;;;;;5280838;28;20044;-75
2023/12/03 01:27:32;;;;;;;22.63;16.23;;;;;;;;;;5281297;28;20035;-76
2023/12/03 01:30:04;;;;;;;22.07;15.47;;;;;;;;;;5281172;28;20033;-76
2023/12/03 01:32:35;;;;;;;24.73;16.23;;;;;;;;;;5280478;28;20017;-76
2023/12/03 01:35:06;;;;;;;22.20;15.50;;;;;;;;;;5281450;28;20048;-76
2023/12/03 01:37:37;;;;;;;21.50;15.13;;;;;;;;;;5281216;28;20016;-76
2023/12/03 01:40:09;;;;;;;22.93;15.30;;;;;;;;;;5280930;28;20063;-76
2023/12/03 01:42:40;;;;;;;25.33;17.50;;;;;;;;;;5281225;28;20033;-76
2023/12/03 01:45:11;;;;;;;22.30;15.63;;;;;;;;;;5280664;28;20044;-76
2023/12/03 01:47:43;;;;;;;23.93;15.97;;;;;;;;;;5280983;28;20021;-75
2023/12/03 01:50:14;;;;;;;21.90;15.63;;;;;;;;;;5281431;28;20096;-76
2023/12/03 01:52:46;;;;;;;24.37;15.97;;;;;;;;;;5280248;28;20048;-76
2023/12/03 01:55:20;;;;;;;24.40;15.83;;;;;;;;;;5281518;28;20028;-76
2023/12/03 01:57:51;;;;;;;25.77;17.03;;;;;;;;;;5281391;28;20039;-76
2023/12/03 02:00:22;;;;;;;27.50;18.97;;;;;;;;;;5284426;28;20435;-76
2023/12/03 02:02:53;;;;;;;28.27;18.07;;;;;;;;;;5286087;28;20027;-76
2023/12/03 02:05:25;;;;;;;29.83;18.10;;;;;;;;;;5285289;28;20025;-76
2023/12/03 02:07:56;;;;;;;27.27;18.30;;;;;;;;;;5284993;28;20108;-76
2023/12/03 02:10:27;;;;;;;29.93;19.93;;;;;;;;;;5285179;28;20012;-76
2023/12/03 02:12:59;;;;;;;29.03;18.53;;;;;;;;;;5284584;28;20012;-77
2023/12/03 02:15:30;;;;;;;31.87;19.70;;;;;;;;;;5285296;28;20025;-76
2023/12/03 02:18:01;;;;;;;31.87;19.47;;;;;;;;;;5285175;28;20074;-76
2023/12/03 02:20:32;;;;;;;28.53;19.43;;;;;;;;;;5284596;28;20044;-76
2023/12/03 02:23:03;;;;;;;27.62;18.60;;;;;;;;;;5285050;28;20070;-76
2023/12/03 02:25:34;;;;;;;28.00;18.87;;;;;;;;;;5284813;28;20104;-76
2023/12/03 02:28:06;;;;;;;31.60;19.20;;;;;;;;;;5284070;28;20013;-76
2023/12/03 02:30:37;;;;;;;26.97;18.47;;;;;;;;;;5284671;28;20115;-76
2023/12/03 02:33:08;;;;;;;27.83;17.60;;;;;;;;;;5284910;28;20464;-76
2023/12/03 02:35:39;;;;;;;27.03;18.53;;;;;;;;;;5283512;28;20069;-75
2023/12/03 02:38:10;;;;;;;26.57;17.27;;;;;;;;;;5284007;28;20027;-76
2023/12/03 02:40:42;;;;;;;22.90;15.90;;;;;;;;;;5284278;28;20027;-76
2023/12/03 02:43:13;;;;;;;25.80;16.30;;;;;;;;;;5283686;28;20498;-76
2023/12/03 02:45:44;;;;;;;25.00;16.27;;;;;;;;;;5284423;28;20099;-76
2023/12/03 02:48:15;;;;;;;22.74;14.52;;;;;;;;;;5283643;28;20037;-76
2023/12/03 02:50:46;;;;;;;22.37;14.77;;;;;;;;;;5284725;28;20009;-76
2023/12/03 02:53:17;;;;;;;23.52;16.12;;;;;;;;;;5284379;28;20048;-76
2023/12/03 02:55:49;;;;;;;23.80;16.10;;;;;;;;;;5284056;28;20095;-76
2023/12/03 02:58:20;;;;;;;23.80;15.53;;;;;;;;;;5284445;28;20080;-76
2023/12/03 03:00:52;;;;;;;23.33;15.47;;;;;;;;;;5284430;28;20096;-77
2023/12/03 03:03:23;;;;;;;25.80;15.90;;;;;;;;;;5283250;28;20028;-76
2023/12/03 03:05:54;;;;;;;25.77;16.03;;;;;;;;;;5284411;28;20036;-76
2023/12/03 03:08:25;;;;;;;24.52;15.08;;;;;;;;;;5283821;28;20032;-76
2023/12/03 03:10:56;;;;;;;23.60;14.67;;;;;;;;;;5282956;28;20017;-76
2023/12/03 03:13:28;;;;;;;27.83;16.33;;;;;;;;;;5283943;28;20025;-76
2023/12/03 03:16:00;;;;;;;25.17;15.67;;;;;;;;;;5283948;28;20019;-76
2023/12/03 03:18:34;;;;;;;21.53;14.00;;;;;;;;;;5283390;28;20464;-76
2023/12/03 03:21:05;;;;;;;26.97;17.03;;;;;;;;;;5284240;28;20520;-76
2023/12/03 03:23:37;;;;;;;26.10;16.57;;;;;;;;;;5283086;28;20028;-75
2023/12/03 03:26:08;;;;;;;24.33;16.43;;;;;;;;;;5283594;28;20103;-76
2023/12/03 03:28:39;;;;;;;27.13;16.90;;;;;;;;;;5283497;28;20037;-75
2023/12/03 03:31:11;;;;;;;24.47;16.00;;;;;;;;;;5283163;28;20039;-75
2023/12/03 03:33:42;;;;;;;25.53;16.73;;;;;;;;;;5283825;28;20014;-75
2023/12/03 03:36:13;;;;;;;25.74;15.44;;;;;;;;;;5283519;28;20066;-75
2023/12/03 03:38:44;;;;;;;25.93;17.03;;;;;;;;;;5282361;28;20024;-75
2023/12/03 03:41:15;;;;;;;28.64;17.68;;;;;;;;;;5283224;28;20031;-75
2023/12/03 03:43:46;;;;;;;29.33;16.90;;;;;;;;;;5283608;28;20025;-75
2023/12/03 03:46:18;;;;;;;24.83;16.50;;;;;;;;;;5282867;28;20024;-75
2023/12/03 03:48:49;;;;;;;24.23;15.90;;;;;;;;;;5283427;28;20047;-75
2023/12/03 03:51:21;;;;;;;26.63;16.17;;;;;;;;;;5282516;28;20032;-75
2023/12/03 03:53:52;;;;;;;27.63;16.50;;;;;;;;;;5283494;28;20196;-75
2023/12/03 03:56:23;;;;;;;28.27;16.33;;;;;;;;;;5283378;28;20073;-75
2023/12/03 03:58:54;;;;;;;25.47;15.83;;;;;;;;;;5283255;28;20104;-75
2023/12/03 04:01:26;;;;;;;24.50;15.90;;;;;;;;;;5283059;28;20020;-74
2023/12/03 04:03:57;;;;;;;24.97;15.60;;;;;;;;;;5283009;28;20021;-74
2023/12/03 04:06:28;;;;;;;28.03;15.97;;;;;;;;;;5282583;28;20017;-75
2023/12/03 04:08:59;;;;;;;25.70;15.70;;;;;;;;;;5283175;28;20033;-75
2023/12/03 04:11:30;;;;;;;26.00;15.30;;;;;;;;;;5283038;28;20020;-75
2023/12/03 04:14:02;;;;;;;26.97;15.90;;;;;;;;;;5282261;28;20024;-75
2023/12/03 04:16:34;;;;;;;25.33;15.40;;;;;;;;;;5282790;28;20107;-76
2023/12/03 04:19:06;;;;;;;24.43;15.27;;;;;;;;;;5282696;28;20027;-75
2023/12/03 04:21:38;;;;;;;24.97;15.97;;;;;;;;;;5281326;28;20013;-74
2023/12/03 04:24:09;;;;;;;26.67;16.17;;;;;;;;;;5282634;28;20024;-76
2023/12/03 04:26:41;;;;;;;30.83;18.03;;;;;;;;;;5282066;28;20020;-75
2023/12/03 04:29:12;;;;;;;28.00;15.40;;;;;;;;;;5282404;28;20118;-75
2023/12/03 04:31:44;;;;;;;27.90;16.30;;;;;;;;;;5282752;28;20040;-75
2023/12/03 04:34:15;;;;;;;26.40;16.17;;;;;;;;;;5281886;28;20390;-76
2023/12/03 04:36:46;;;;;;;27.10;16.57;;;;;;;;;;5282745;28;20016;-75
2023/12/03 04:39:17;;;;;;;25.00;15.50;;;;;;;;;;5282559;28;20103;-75
2023/12/03 04:41:48;;;;;;;26.43;16.40;;;;;;;;;;5281928;28;20020;-75
2023/12/03 04:44:19;;;;;;;30.40;16.83;;;;;;;;;;5282730;28;20560;-75
2023/12/03 04:46:51;;;;;;;26.52;17.00;;;;;;;;;;5282383;28;20070;-76
2023/12/03 04:49:23;;;;;;;25.60;16.20;;;;;;;;;;5281254;28;20033;-75
2023/12/03 04:51:55;;;;;;;25.40;15.77;;;;;;;;;;5282651;28;20033;-76
2023/12/03 04:54:26;;;;;;;27.53;16.80;;;;;;;;;;5281675;28;20049;-76
2023/12/03 04:56:57;;;;;;;26.77;16.37;;;;;;;;;;5281526;28;20095;-75
2023/12/03 04:59:28;;;;;;;24.37;15.17;;;;;;;;;;5281971;28;20067;-76
2023/12/03 05:01:59;;;;;;;28.07;16.70;;;;;;;;;;5281430;28;20379;-76
2023/12/03 05:04:30;;;;;;;29.20;16.37;;;;;;;;;;5281999;28;20097;-76
2023/12/03 05:07:02;;;;;;;31.96;17.50;;;;;;;;;;5282173;28;20103;-76
2023/12/03 05:09:33;;;;;;;31.17;18.40;;;;;;;;;;5281134;28;20032;-76
2023/12/03 05:12:04;;;;;;;31.57;18.77;;;;;;;;;;5282005;28;20020;-77
2023/12/03 05:14:37;;;;;;;27.67;16.73;;;;;;;;;;5282053;28;20535;-76
2023/12/03 05:17:08;;;;;;;33.23;19.33;;;;;;;;;;5281173;28;20062;-76
2023/12/03 05:19:41;;;;;;;28.30;17.17;;;;;;;;;;5281990;28;20048;-76
2023/12/03 05:22:12;;;;;;;32.93;20.47;;;;;;;;;;5281861;28;20020;-76
2023/12/03 05:24:44;;;;;;;32.67;18.80;;;;;;;;;;5280840;28;20030;-76
2023/12/03 05:27:15;;;;;;;33.70;19.60;;;;;;;;;;5281379;28;20362;-76
2023/12/03 05:29:46;;;;;;;32.93;19.10;;;;;;;;;;5280534;28;20106;-76
2023/12/03 05:32:18;;;;;;;34.00;20.50;;;;;;;;;;5281315;28;20037;-76
2023/12/03 05:34:49;;;;;;;37.33;20.93;;;;;;;;;;5281483;28;20020;-76
2023/12/03 05:37:20;;;;;;;38.67;21.73;;;;;;;;;;5280594;28;20044;-76
2023/12/03 05:39:51;;;;;;;33.57;20.20;;;;;;;;;;5281484;28;20387;-76
2023/12/03 05:42:23;;;;;;;32.92;19.65;;;;;;;;;;5281469;28;20028;-76
2023/12/03 05:44:54;;;;;;;39.40;21.00;;;;;;;;;;5281197;28;20036;-76
2023/12/03 05:47:25;;;;;;;31.73;18.37;;;;;;;;;;5281447;28;20450;-76
2023/12/03 05:49:58;;;;;;;30.90;17.63;;;;;;;;;;5281684;28;20081;-76
2023/12/03 05:52:30;;;;;;;30.47;19.60;;;;;;;;;;5280650;28;20016;-76
2023/12/03 05:55:01;;;;;;;33.00;19.30;;;;;;;;;;5281843;28;20032;-77
2023/12/03 05:57:33;;;;;;;33.27;19.27;;;;;;;;;;5281668;28;20021;-76
2023/12/03 06:00:04;;;;;;;33.97;19.10;;;;;;;;;;5280678;28;20083;-77
2023/12/03 06:02:35;;;;;;;30.43;18.40;;;;;;;;;;5281534;28;20012;-77
2023/12/03 06:05:07;;;;;;;34.97;19.57;;;;;;;;;;5280752;28;20012;-76
2023/12/03 06:07:38;;;;;;;31.77;17.97;;;;;;;;;;5281338;28;20104;-76
2023/12/03 06:10:09;;;;;;;31.63;17.90;;;;;;;;;;5281343;28;20029;-76
2023/12/03 06:12:40;;;;;;;31.03;18.20;;;;;;;;;;5280575;28;20029;-76
2023/12/03 06:15:12;;;;;;;33.20;18.73;;;;;;;;;;5281052;28;20081;-76
2023/12/03 06:17:43;;;;;;;33.60;18.10;;;;;;;;;;5281022;28;20032;-76
2023/12/03 06:20:14;;;;;;;28.80;17.33;;;;;;;;;;5280326;28;20029;-76
2023/12/03 06:22:45;;;;;;;34.07;19.60;;;;;;;;;;5281130;28;20107;-76
2023/12/03 06:25:16;;;;;;;33.70;18.43;;;;;;;;;;5281099;28;20036;-76
2023/12/03 06:27:48;;;;;;;29.93;16.93;;;;;;;;;;5280111;28;20091;-76
2023/12/03 06:30:19;;;;;;;34.23;18.27;;;;;;;;;;5281152;28;20059;-76
2023/12/03 06:32:50;;;;;;;37.20;19.57;;;;;;;;;;5281195;28;20020;-76
2023/12/03 06:35:21;;;;;;;34.83;17.83;;;;;;;;;;5279904;28;20043;-76
2023/12/03 06:37:52;;;;;;;30.73;17.33;;;;;;;;;;5281439;28;20021;-76
2023/12/03 06:40:23;;;;;;;31.90;18.00;;;;;;;;;;5279727;28;20046;-76
2023/12/03 06:42:55;;;;;;;30.53;17.83;;;;;;;;;;5281328;28;20024;-76
2023/12/03 06:45:26;;;;;;;32.60;18.48;;;;;;;;;;5282713;28;20023;-76
2023/12/03 06:47:57;;;;;;;32.10;17.30;;;;;;;;;;5283930;28;20055;-76
2023/12/03 06:50:28;;;;;;;34.07;17.70;;;;;;;;;;5284617;28;20020;-76
2023/12/03 06:53:00;;;;;;;29.03;16.03;;;;;;;;;;5284269;28;20044;-76
2023/12/03 06:55:31;;;;;;;28.57;16.23;;;;;;;;;;5283984;28;20464;-76
2023/12/03 06:58:03;;;;;;;30.20;17.03;;;;;;;;;;5284329;28;20020;-76
2023/12/03 07:00:34;;;;;;;30.00;16.63;;;;;;;;;;5284381;28;20051;-76
2023/12/03 07:03:06;;;;;;;31.77;18.13;;;;;;;;;;5283496;28;20020;-76
2023/12/03 07:05:38;;;;;;;37.20;18.20;;;;;;;;;;5284513;28;20017;-76
2023/12/03 07:08:10;;;;;;;28.77;15.47;;;;;;;;;;5284424;28;20025;-76
2023/12/03 07:10:41;;;;;;;28.27;15.87;;;;;;;;;;5283575;28;20032;-76
2023/12/03 07:13:12;;;;;;;31.57;17.33;;;;;;;;;;5284037;28;20045;-76
2023/12/03 07:15:43;;;;;;;30.50;17.00;;;;;;;;;;5283208;28;20035;-77
2023/12/03 07:18:14;;;;;;;29.97;17.33;;;;;;;;;;5284062;28;20380;-76
2023/12/03 07:20:45;;;;;;;32.60;17.77;;;;;;;;;;5284104;28;20012;-76
2023/12/03 07:23:17;;;;;;;31.83;18.13;;;;;;;;;;5282689;28;20021;-77
2023/12/03 07:25:48;;;;;;;32.50;18.43;;;;;;;;;;5283665;28;20021;-77
2023/12/03 07:28:19;;;;;;;30.10;15.77;;;;;;;;;;5283590;28;20028;-76
2023/12/03 07:30:51;;;;;;;29.10;17.37;;;;;;;;;;5283056;28;20024;-77
2023/12/03 07:33:22;;;;;;;28.13;16.90;;;;;;;;;;5283437;28;20040;-78
2023/12/03 07:35:53;;;;;;;29.77;17.70;;;;;;;;;;5283920;28;20029;-77
2023/12/03 07:38:24;;;;;;;27.27;16.07;;;;;;;;;;5283016;28;20098;-77
2023/12/03 07:40:56;;;;;;;30.80;16.93;;;;;;;;;;5283933;28;20077;-77
2023/12/03 07:43:27;;;;;;;33.13;18.47;;;;;;;;;;5282816;28;20020;-77
2023/12/03 07:45:58;;;;;;;29.17;17.47;;;;;;;;;;5283784;28;20420;-76
2023/12/03 07:48:29;;;;;;;30.83;17.00;;;;;;;;;;5283854;28;20035;-75
2023/12/03 07:51:01;;;;;;;30.40;17.53;;;;;;;;;;5282950;28;20048;-77
2023/12/03 07:53:32;;;;;;;30.27;17.17;;;;;;;;;;5283559;28;20048;-76
2023/12/03 07:56:03;;;;;;;28.10;16.00;;;;;;;;;;5282452;28;20025;-76
2023/12/03 07:58:35;;;;;;;32.13;17.27;;;;;;;;;;5282703;28;20012;-76
2023/12/03 08:01:07;;;;;;;29.97;17.30;;;;;;;;;;5283512;28;20027;-76
2023/12/03 08:03:38;;;;;;;28.93;16.50;;;;;;;;;;5283452;28;20029;-76
2023/12/03 08:06:09;;;;;;;28.03;16.20;;;;;;;;;;5282900;28;20027;-76
2023/12/03 08:08:40;;;;;;;30.33;17.67;;;;;;;;;;5283278;28;20115;-74
2023/12/03 08:11:12;;;;;;;28.57;16.90;;;;;;;;;;5283263;28;20035;-77
2023/12/03 08:13:43;;;;;;;29.43;16.80;;;;;;;;;;5281889;28;20047;-75
2023/12/03 08:16:14;;;;;;;30.40;16.90;;;;;;;;;;5280997;28;20024;-76
2023/12/03 08:18:45;;;;;;;29.57;17.17;;;;;;;;;;5282539;28;20016;-76
2023/12/03 08:21:16;;;;;;;31.10;17.60;;;;;;;;;;5284157;28;20021;-75
2023/12/03 08:23:48;;;;;;;29.57;17.20;;;;;;;;;;5282538;28;20027;-76
2023/12/03 08:26:19;;;;;;;31.60;17.20;;;;;;;;;;5282293;28;20361;-75
2023/12/03 08:28:50;;;;;;;28.00;15.47;;;;;;;;;;5282651;28;20063;-75
2023/12/03 08:31:23;;;;;;;30.60;16.77;;;;;;;;;;5282065;28;20113;-75
2023/12/03 08:33:54;;;;;;;31.47;17.33;;;;;;;;;;5282039;28;20025;-75
2023/12/03 08:36:30;;;;;;;30.23;16.57;;;;;;;;;;5281942;28;20016;-75
2023/12/03 08:39:05;;;;;;;28.90;16.70;;;;;;;;;;5275894;28;20442;-76
2023/12/03 08:41:36;;;;;;;32.73;17.90;;;;;;;;;;5266181;28;20048;-75
2023/12/03 08:44:08;;;;;;;29.53;15.77;;;;;;;;;;5261112;28;20131;-77
2023/12/03 08:46:39;;;;;;;25.10;15.67;;;;;;;;;;5261918;28;20013;-76
2023/12/03 08:49:11;;;;;;;26.27;15.87;;;;;;;;;;5259906;28;20238;-77
2023/12/03 08:51:42;;;;;;;24.70;14.60;;;;;;;;;;5260804;28;20028;-76
2023/12/03 08:54:13;;;;;;;26.70;14.23;;;;;;;;;;5259333;28;20068;-76
2023/12/03 08:56:44;;;;;;;24.67;15.23;;;;;;;;;;5260174;28;20100;-77
2023/12/03 08:59:16;;;;;;;28.43;15.70;;;;;;;;;;5259922;28;20488;-75
2023/12/03 09:01:47;;;;;;;22.57;14.53;;;;;;;;;;5259622;28;20013;-77
2023/12/03 09:04:18;;;;;;;24.83;14.93;;;;;;;;;;5260334;28;20068;-76
2023/12/03 09:06:49;;;;;;;29.10;15.57;;;;;;;;;;5260129;28;20029;-80
2023/12/03 09:09:20;;;;;;;25.37;14.73;;;;;;;;;;5257973;28;20041;-79
2023/12/03 09:11:52;;;;;;;28.10;15.37;;;;;;;;;;5260811;28;20520;-76
2023/12/03 09:14:25;;;;;;;22.50;13.83;;;;;;;;;;5280431;28;20028;-79
2023/12/03 09:16:58;;;;;;;25.90;15.33;;;;;;;;;;5280527;28;20475;-77
2023/12/03 09:19:29;;;;;;;26.30;15.07;;;;;;;;;;5281775;28;20483;-78
2023/12/03 09:22:00;;;;;;;22.53;13.60;;;;;;;;;;5279874;28;20053;-77
2023/12/03 09:24:32;;;;;;;21.20;12.60;;;;;;;;;;5280717;28;20558;-77
2023/12/03 09:27:03;;;;;;;26.17;14.60;;;;;;;;;;5281573;28;20141;-78
2023/12/03 09:29:34;;;;;;;23.43;14.70;;;;;;;;;;5280917;28;20039;-76
2023/12/03 09:32:05;;;;;;;21.77;13.83;;;;;;;;;;5281416;28;20021;-76
2023/12/03 09:34:36;;;;;;;22.77;13.53;;;;;;;;;;5281571;28;20021;-76
2023/12/03 09:37:09;;;;;;;25.00;14.53;;;;;;;;;;5280992;28;20021;-79
2023/12/03 09:39:40;;;;;;;23.57;14.67;;;;;;;;;;5281743;28;20135;-79
2023/12/03 09:42:12;;;;;;;23.73;13.90;;;;;;;;;;5281661;28;20067;-73
2023/12/03 09:44:48;;;;;;;23.43;14.33;;;;;;;;;;5280648;28;20021;-77
2023/12/03 09:47:21;;;;;;;23.97;13.60;;;;;;;;;;5281202;28;20009;-78
2023/12/03 09:49:56;;;;;;;25.13;14.60;;;;;;;;;;5281598;28;20130;-79
2023/12/03 09:52:28;;;;;;;25.27;14.53;;;;;;;;;;5280025;28;20017;-79
2023/12/03 09:55:00;;;;;;;23.67;13.97;;;;;;;;;;5281262;28;20043;-80
2023/12/03 09:57:33;;;;;;;23.47;13.10;;;;;;;;;;5280879;28;20020;-79
2023/12/03 10:00:07;;;;;;;19.50;12.07;;;;;;;;;;5281345;28;20028;-81
2023/12/03 10:02:38;;;;;;;22.50;13.00;;;;;;;;;;5281260;28;20524;-81
2023/12/03 10:05:09;;;;;;;21.93;13.37;;;;;;;;;;5283032;28;20107;-83
2023/12/03 10:07:41;;;;;;;26.97;15.23;;;;;;;;;;5281947;28;20029;-79
2023/12/03 10:10:13;;;;;;;20.67;12.50;;;;;;;;;;5281032;28;20036;-79
2023/12/03 10:12:45;;;;;;;22.50;12.90;;;;;;;;;;5280240;28;20017;-80
2023/12/03 10:15:16;;;;;;;23.77;13.83;;;;;;;;;;5281288;28;20024;-80
2023/12/03 10:17:49;;;;;;;20.80;12.57;;;;;;;;;;5280997;28;20020;-80
2023/12/03 10:20:21;;;;;;;21.60;12.60;;;;;;;;;;5282260;28;20027;-79
2023/12/03 10:22:54;;;;;;;21.13;12.57;;;;;;;;;;5285246;28;20387;-75
2023/12/03 10:25:29;;;;;;;23.13;12.73;;;;;;;;;;5287317;28;20017;-84
2023/12/03 10:28:01;;;;;;;20.57;11.70;;;;;;;;;;5290208;28;20033;-83
2023/12/03 10:30:33;;;;;;;19.20;12.27;;;;;;;;;;5288662;28;20078;-81
2023/12/03 10:33:04;;;;;;;20.70;13.00;;;;;;;;;;5291576;28;20370;-84
2023/12/03 10:35:36;;;;;;;19.80;12.43;;;;;;;;;;5292765;28;20020;-83
2023/12/03 10:38:10;;;;;;;20.37;12.43;;;;;;;;;;5294724;28;20031;-84
2023/12/03 10:40:41;;;;;;;18.53;11.90;;;;;;;;;;5292681;28;20062;-83
2023/12/03 10:43:12;;;;;;;24.10;13.27;;;;;;;;;;5293169;28;20020;-84
2023/12/03 10:45:47;;;;;;;20.57;12.67;;;;;;;;;;5292230;28;20043;-83
2023/12/03 10:48:19;;;;;;;18.37;12.23;;;;;;;;;;5289204;28;20027;-83
2023/12/03 10:50:50;;;;;;;19.37;12.13;;;;;;;;;;5289412;28;20028;-83
2023/12/03 10:53:23;;;;;;;20.03;10.77;;;;;;;;;;5288506;28;20048;-83
2023/12/03 10:55:54;;;;;;;17.73;10.37;;;;;;;;;;5291452;28;20027;-83
2023/12/03 10:58:25;;;;;;;19.67;11.77;;;;;;;;;;5292837;28;20009;-83
2023/12/03 11:01:15;;;;;;;17.13;10.23;;;;;;;;;;5291925;28;20020;-84
2023/12/03 11:04:05;;;;;;;18.17;10.83;;;;;;;;;;5290616;28;20082;-84
2023/12/03 11:06:37;;;;;;;16.27;10.60;;;;;;;;;;5289147;28;20028;-82
2023/12/03 11:09:08;;;;;;;16.03;10.30;;;;;;;;;;5289707;28;20464;-83
2023/12/03 11:11:40;;;;;;;16.93;10.93;;;;;;;;;;5291366;28;20024;-84
2023/12/03 11:14:11;;;;;;;15.73;9.90;;;;;;;;;;5289573;28;20032;-83
2023/12/03 11:16:42;;;;;;;16.27;10.37;;;;;;;;;;5290226;28;20051;-83
2023/12/03 11:19:17;;;;;;;15.08;9.56;;;;;;;;;;5289950;28;20453;-83
2023/12/03 11:22:03;;;;;;;15.07;9.10;;;;;;;;;;5287936;28;20031;-83
2023/12/03 11:24:39;;;;;;;16.37;9.20;;;;;;;;;;5287101;28;20016;-83
2023/12/03 11:27:10;;;;;;;15.07;9.82;;;;;;;;;;5287822;28;20012;-84
2023/12/03 11:29:45;;;;;;;13.23;8.67;;;;;;;;;;5290292;28;20032;-82
2023/12/03 11:32:17;;;;;;;14.55;9.50;;;;;;;;;;5295767;28;20110;-83
2023/12/03 11:34:58;;;;;;;15.25;9.93;;;;;;;;;;5296720;28;20020;-83
2023/12/03 11:37:30;;;;;;;14.90;9.52;;;;;;;;;;5290554;28;20494;-83
2023/12/03 11:40:05;;;;;;;14.07;9.05;;;;;;;;;;5289532;28;20025;-83
2023/12/03 11:42:42;;;;;;;14.88;9.02;;;;;;;;;;5287245;28;20506;-84
2023/12/03 11:45:19;;;;;;;14.73;9.52;;;;;;;;;;5287524;28;20021;-84
2023/12/03 11:48:02;;;;;;;14.02;8.82;;;;;;;;;;5289212;28;20451;-85
2023/12/03 11:50:34;;;;;;;14.38;8.88;;;;;;;;;;5286129;28;20071;-83
2023/12/03 11:53:06;;;;;;;14.48;9.43;;;;;;;;;;5285494;28;20048;-84
2023/12/03 11:55:41;;;;;;;15.40;9.88;;;;;;;;;;5284862;28;20013;-84
2023/12/03 11:58:13;;;;;;;15.50;9.45;;;;;;;;;;5284995;28;20044;-84
2023/12/03 12:00:46;;;;;;;13.40;8.68;;;;;;;;;;5284536;28;20062;-75
2023/12/03 12:03:17;;;;;;;13.45;7.88;;;;;;;;;;5282898;28;20024;-76
2023/12/03 12:05:49;;;;;;;15.23;8.95;;;;;;;;;;5282530;28;20074;-80
2023/12/03 12:08:21;;;;;;;15.70;8.50;;;;;;;;;;5282997;28;20069;-79
2023/12/03 12:10:52;;;;;;;13.48;8.40;;;;;;;;;;5282583;28;20016;-80
2023/12/03 12:13:24;;;;;;;13.13;7.95;;;;;;;;;;5282538;28;20028;-81
2023/12/03 12:15:55;;;;;;;13.43;8.20;;;;;;;;;;5283289;28;20025;-79
2023/12/03 12:18:27;;;;;;;12.88;8.73;;;;;;;;;;5281261;28;20020;-80
2023/12/03 12:21:10;;;;;;;12.27;7.87;;;;;;;;;;5275256;28;20024;-80
2023/12/03 12:23:43;;;;;;;14.07;8.63;;;;;;;;;;5282646;28;20420;-81
2023/12/03 12:26:14;;;;;;;13.23;8.88;;;;;;;;;;5281720;28;20058;-79
2023/12/03 12:28:46;;;;;;;13.00;8.02;;;;;;;;;;5282328;28;20472;-80
2023/12/03 12:31:19;;;;;;;15.30;9.60;;;;;;;;;;5282220;28;20038;-79
2023/12/03 12:33:50;;;;;;;14.55;8.55;;;;;;;;;;5281551;28;20025;-78
2023/12/03 12:36:22;;;;;;;12.45;8.10;;;;;;;;;;5281937;28;20418;-78
2023/12/03 12:38:53;;;;;;;15.73;9.25;;;;;;;;;;5281570;28;20017;-77
2023/12/03 12:41:24;;;;;;;14.48;8.88;;;;;;;;;;5281110;28;20081;-78
2023/12/03 12:43:59;;;;;;;15.52;9.52;;;;;;;;;;5281361;28;20024;-77
2023/12/03 12:46:31;;;;;;;13.57;8.55;;;;;;;;;;5281187;28;20024;-77
2023/12/03 12:49:15;;;;;;;17.88;9.60;;;;;;;;;;5281405;28;20032;-79
2023/12/03 12:51:46;;;;;;;15.05;9.43;;;;;;;;;;5281320;28;20024;-79
2023/12/03 12:54:17;;;;;;;14.13;9.25;;;;;;;;;;5280940;28;20386;-80
2023/12/03 12:56:48;;;;;;;16.42;10.57;;;;;;;;;;5281744;28;20100;-79
2023/12/03 12:59:19;;;;;;;16.33;10.65;;;;;;;;;;5281929;28;20484;-79
2023/12/03 13:01:51;;;;;;;16.88;10.13;;;;;;;;;;5281315;28;20025;-78
2023/12/03 13:04:22;;;;;;;17.50;10.82;;;;;;;;;;5280958;28;20078;-79
2023/12/03 13:06:53;;;;;;;16.50;10.95;;;;;;;;;;5281528;28;20025;-79
2023/12/03 13:09:24;;;;;;;15.90;10.25;;;;;;;;;;5280758;28;20041;-78
2023/12/03 13:11:56;;;;;;;18.13;10.57;;;;;;;;;;5281719;28;20451;-79
2023/12/03 13:14:28;;;;;;;18.70;11.57;;;;;;;;;;5284505;28;20024;-78
2023/12/03 13:17:00;;;;;;;16.58;9.75;;;;;;;;;;5281014;28;20035;-78
2023/12/03 13:19:31;;;;;;;15.23;9.20;;;;;;;;;;5281251;28;20020;-78
2023/12/03 13:22:02;;;;;;;17.02;10.02;;;;;;;;;;5280722;28;20020;-79
2023/12/03 13:24:33;;;;;;;15.70;10.00;;;;;;;;;;5281545;28;20013;-77
2023/12/03 13:27:06;;;;;;;17.03;11.00;;;;;;;;;;5280688;28;20021;-79
2023/12/03 13:29:37;;;;;;;15.73;10.18;;;;;;;;;;5280254;28;20040;-78
2023/12/03 13:32:08;;;;;;;17.17;11.32;;;;;;;;;;5281606;28;20062;-76
2023/12/03 13:34:39;;;;;;;18.30;11.10;;;;;;;;;;5281539;28;20036;-77
2023/12/03 13:37:10;;;;;;;18.06;11.38;;;;;;;;;;5281162;28;20017;-79
2023/12/03 13:39:42;;;;;;;17.08;10.77;;;;;;;;;;5281252;28;20028;-80
2023/12/03 13:42:13;;;;;;;18.92;11.68;;;;;;;;;;5280230;28;20532;-78
2023/12/03 13:44:45;;;;;;;15.65;10.40;;;;;;;;;;5280186;28;20025;-78
2023/12/03 13:47:16;;;;;;;19.45;11.63;;;;;;;;;;5281484;28;20028;-79
2023/12/03 13:49:47;;;;;;;17.25;10.98;;;;;;;;;;5281139;28;20025;-78
2023/12/03 13:52:20;;;;;;;18.08;11.25;;;;;;;;;;5281685;28;20009;-75
2023/12/03 13:54:51;;;;;;;17.80;11.50;;;;;;;;;;5284481;28;20491;-75
2023/12/03 13:57:22;;;;;;;16.65;10.27;;;;;;;;;;5284436;28;20032;-76
2023/12/03 13:59:53;;;;;;;18.08;11.52;;;;;;;;;;5285778;28;20485;-76
2023/12/03 14:02:26;;;;;;;17.35;10.95;;;;;;;;;;5285270;28;20024;-78
2023/12/03 14:04:57;;;;;;;16.98;10.45;;;;;;;;;;5284110;28;20153;-77
2023/12/03 14:07:28;;;;;;;19.15;11.23;;;;;;;;;;5285237;28;20521;-77
2023/12/03 14:09:59;;;;;;;20.05;12.13;;;;;;;;;;5285192;28;20056;-77
2023/12/03 14:12:31;;;;;;;17.70;11.05;;;;;;;;;;5284052;28;20024;-76
2023/12/03 14:15:03;;;;;;;17.13;9.90;;;;;;;;;;5285510;28;20021;-77
2023/12/03 14:17:34;;;;;;;17.35;10.93;;;;;;;;;;5284367;28;20442;-76
2023/12/03 14:20:05;;;;;;;18.95;11.60;;;;;;;;;;5285337;28;20067;-79
2023/12/03 14:22:37;;;;;;;19.70;12.40;;;;;;;;;;5284786;28;20017;-79
2023/12/03 14:25:08;;;;;;;19.42;10.98;;;;;;;;;;5284258;28;20056;-79
2023/12/03 14:27:40;;;;;;;19.00;12.15;;;;;;;;;;5285527;28;20020;-80
2023/12/03 14:30:11;;;;;;;16.35;10.77;;;;;;;;;;5286078;28;20032;-82
2023/12/03 14:32:42;;;;;;;19.02;12.02;;;;;;;;;;5285027;28;20012;-80
2023/12/03 14:35:14;;;;;;;18.02;11.80;;;;;;;;;;5285021;28;20021;-79
2023/12/03 14:37:45;;;;;;;19.80;11.23;;;;;;;;;;5284974;28;20020;-79
2023/12/03 14:40:16;;;;;;;16.45;10.95;;;;;;;;;;5284083;28;20028;-80
2023/12/03 14:42:47;;;;;;;18.55;11.93;;;;;;;;;;5288788;28;20021;-81
2023/12/03 14:45:19;;;;;;;21.00;12.15;;;;;;;;;;5288155;28;20024;-80